Terminal Aerodrome Forecast
Issued by NWS

Home | Current Version | Previous Version | Text Only | Print | Product List | Glossary On
Versions: 1 2 3 4 5 6 7 8 9 10 11 12 13 14 15 16 17 18 19 20 21 22 23 24 25 26
000
FTPA31 PHFO 240100 AAA
TAFITO
TAF AMD
PHTO 240147Z 2402/2424 01012KT 5SM -RA SCT025 BKN030
      TEMPO 2402/2404 2SM RA BR BKN015
     FM240400 33006KT 5SM RA SCT015 OVC025
     FM242000 01012KT P6SM FEW025 SCT040=

USA.gov is the U.S. government's official web portal to all federal, state and local government web resources and services.